sensor_id;sensor_type;location;lat;lon;timestamp;pressure;altitude;pressure_sealevel;temperature;humidity
61026;BME280;46911;32.650;-16.902;2022-08-25T00:00:51;101882.00;;;22.74;71.50
61026;BME280;46911;32.650;-16.902;2022-08-25T00:02:54;101878.28;;;22.76;71.06
61026;BME280;46911;32.650;-16.902;2022-08-25T00:04:57;101878.97;;;22.78;70.90
61026;BME280;46911;32.650;-16.902;2022-08-25T00:06:58;101876.41;;;22.76;70.55
61026;BME280;46911;32.650;-16.902;2022-08-25T00:08:59;101875.16;;;22.70;70.79
61026;BME280;46911;32.650;-16.902;2022-08-25T00:11:01;101875.84;;;22.72;70.65
61026;BME280;46911;32.650;-16.902;2022-08-25T00:13:05;101874.28;;;22.70;70.83
61026;BME280;46911;32.650;-16.902;2022-08-25T00:15:06;101870.72;;;22.69;70.37
61026;BME280;46911;32.650;-16.902;2022-08-25T00:17:08;101869.00;;;22.68;70.46
61026;BME280;46911;32.650;-16.902;2022-08-25T00:19:11;101869.00;;;22.68;70.52
61026;BME280;46911;32.650;-16.902;2022-08-25T00:21:13;101864.13;;;22.72;70.36
61026;BME280;46911;32.650;-16.902;2022-08-25T00:23:16;101862.41;;;22.71;69.75
61026;BME280;46911;32.650;-16.902;2022-08-25T00:25:17;101862.56;;;22.69;69.73
61026;BME280;46911;32.650;-16.902;2022-08-25T00:27:18;101863.25;;;22.71;69.32
61026;BME280;46911;32.650;-16.902;2022-08-25T00:29:19;101857.81;;;22.71;69.37
61026;BME280;46911;32.650;-16.902;2022-08-25T00:31:22;101855.25;;;22.70;69.12
61026;BME280;46911;32.650;-16.902;2022-08-25T00:33:26;101859.53;;;22.72;69.32
61026;BME280;46911;32.650;-16.902;2022-08-25T00:35:30;101853.09;;;22.73;69.04
61026;BME280;46911;32.650;-16.902;2022-08-25T00:37:31;101854.81;;;22.74;69.02
61026;BME280;46911;32.650;-16.902;2022-08-25T00:39:32;101849.53;;;22.73;69.03
61026;BME280;46911;32.650;-16.902;2022-08-25T00:41:33;101851.38;;;22.72;68.53
61026;BME280;46911;32.650;-16.902;2022-08-25T00:43:45;101846.47;;;22.76;68.10
61026;BME280;46911;32.650;-16.902;2022-08-25T00:45:46;101840.66;;;22.71;68.13
61026;BME280;46911;32.650;-16.902;2022-08-25T00:47:47;101839.81;;;22.70;68.31
61026;BME280;46911;32.650;-16.902;2022-08-25T00:49:52;101840.81;;;22.69;68.19
61026;BME280;46911;32.650;-16.902;2022-08-25T00:54:31;101836.53;;;22.67;68.07
61026;BME280;46911;32.650;-16.902;2022-08-25T00:56:33;101837.38;;;22.67;68.04
61026;BME280;46911;32.650;-16.902;2022-08-25T00:58:34;101827.66;;;22.65;67.98
61026;BME280;46911;32.650;-16.902;2022-08-25T01:00:37;101833.66;;;22.68;67.66
61026;BME280;46911;32.650;-16.902;2022-08-25T01:02:41;101826.22;;;22.70;66.94
61026;BME280;46911;32.650;-16.902;2022-08-25T01:04:43;101830.25;;;22.66;67.50
61026;BME280;46911;32.650;-16.902;2022-08-25T01:06:49;101823.44;;;22.62;67.38
61026;BME280;46911;32.650;-16.902;2022-08-25T01:08:50;101821.72;;;22.61;67.65
61026;BME280;46911;32.650;-16.902;2022-08-25T01:10:51;101825.44;;;22.60;67.52
61026;BME280;46911;32.650;-16.902;2022-08-25T01:12:56;101822.72;;;22.60;67.79
61026;BME280;46911;32.650;-16.902;2022-08-25T01:14:59;101824.44;;;22.61;67.66
61026;BME280;46911;32.650;-16.902;2022-08-25T01:17:03;101821.00;;;22.59;67.37
61026;BME280;46911;32.650;-16.902;2022-08-25T01:19:04;101826.28;;;22.61;67.35
61026;BME280;46911;32.650;-16.902;2022-08-25T01:21:08;101827.16;;;22.61;67.03
61026;BME280;46911;32.650;-16.902;2022-08-25T01:23:08;101823.09;;;22.65;66.78
61026;BME280;46911;32.650;-16.902;2022-08-25T01:27:20;101819.00;;;22.61;66.22
61026;BME280;46911;32.650;-16.902;2022-08-25T01:29:20;101816.09;;;22.63;65.51
61026;BME280;46911;32.650;-16.902;2022-08-25T01:31:21;101822.72;;;22.60;65.61
61026;BME280;46911;32.650;-16.902;2022-08-25T01:33:27;101817.13;;;22.62;64.64
61026;BME280;46911;32.650;-16.902;2022-08-25T01:35:28;101817.59;;;22.57;64.54
61026;BME280;46911;32.650;-16.902;2022-08-25T01:37:28;101815.03;;;22.55;64.90
61026;BME280;46911;32.650;-16.902;2022-08-25T01:39:30;101812.31;;;22.55;65.09
61026;BME280;46911;32.650;-16.902;2022-08-25T01:43:37;101807.56;;;22.57;64.66
61026;BME280;46911;32.650;-16.902;2022-08-25T01:45:38;101807.72;;;22.56;64.45
61026;BME280;46911;32.650;-16.902;2022-08-25T01:47:40;101803.69;;;22.60;63.81
61026;BME280;46911;32.650;-16.902;2022-08-25T01:49:43;101803.28;;;22.55;63.84
61026;BME280;46911;32.650;-16.902;2022-08-25T01:51:47;101798.00;;;22.53;63.84
61026;BME280;46911;32.650;-16.902;2022-08-25T01:53:48;101794.75;;;22.50;63.91
61026;BME280;46911;32.650;-16.902;2022-08-25T01:55:51;101793.75;;;22.51;63.93
61026;BME280;46911;32.650;-16.902;2022-08-25T01:58:03;101793.03;;;22.49;63.64
61026;BME280;46911;32.650;-16.902;2022-08-25T02:00:05;101795.75;;;22.49;63.74
61026;BME280;46911;32.650;-16.902;2022-08-25T02:02:11;101792.03;;;22.50;63.66
61026;BME280;46911;32.650;-16.902;2022-08-25T02:04:11;101794.06;;;22.48;63.67
61026;BME280;46911;32.650;-16.902;2022-08-25T02:06:17;101795.75;;;22.49;63.44
61026;BME280;46911;32.650;-16.902;2022-08-25T02:08:19;101794.28;;;22.54;63.03
61026;BME280;46911;32.650;-16.902;2022-08-25T02:10:21;101791.56;;;22.54;62.95
61026;BME280;46911;32.650;-16.902;2022-08-25T02:12:23;101789.31;;;22.50;63.00
61026;BME280;46911;32.650;-16.902;2022-08-25T02:14:24;101791.63;;;22.45;62.98
61026;BME280;46911;32.650;-16.902;2022-08-25T02:16:27;101789.78;;;22.45;63.25
61026;BME280;46911;32.650;-16.902;2022-08-25T02:18:28;101778.38;;;22.42;63.33
61026;BME280;46911;32.650;-16.902;2022-08-25T02:20:29;101789.25;;;22.42;63.39
61026;BME280;46911;32.650;-16.902;2022-08-25T02:22:34;101784.81;;;22.40;63.68
61026;BME280;46911;32.650;-16.902;2022-08-25T02:24:35;101783.47;;;22.45;63.38
61026;BME280;46911;32.650;-16.902;2022-08-25T02:26:36;101778.38;;;22.42;63.26
61026;BME280;46911;32.650;-16.902;2022-08-25T02:28:37;101779.38;;;22.40;63.41
61026;BME280;46911;32.650;-16.902;2022-08-25T02:30:38;101782.25;;;22.39;63.78
61026;BME280;46911;32.650;-16.902;2022-08-25T02:32:42;101783.13;;;22.39;63.64
61026;BME280;46911;32.650;-16.902;2022-08-25T02:34:44;101780.09;;;22.43;63.84
61026;BME280;46911;32.650;-16.902;2022-08-25T02:36:48;101781.81;;;22.44;63.75
61026;BME280;46911;32.650;-16.902;2022-08-25T02:38:48;101775.19;;;22.46;63.86
61026;BME280;46911;32.650;-16.902;2022-08-25T02:40:49;101771.44;;;22.47;63.59
61026;BME280;46911;32.650;-16.902;2022-08-25T02:42:52;101774.31;;;22.46;63.67
61026;BME280;46911;32.650;-16.902;2022-08-25T02:44:54;101780.63;;;22.46;63.66
61026;BME280;46911;32.650;-16.902;2022-08-25T02:46:58;101777.03;;;22.46;63.86
61026;BME280;46911;32.650;-16.902;2022-08-25T02:48:59;101778.59;;;22.48;63.77
61026;BME280;46911;32.650;-16.902;2022-08-25T02:51:00;101776.44;;;22.52;63.27
61026;BME280;46911;32.650;-16.902;2022-08-25T02:53:01;101770.44;;;22.48;63.30
61026;BME280;46911;32.650;-16.902;2022-08-25T02:55:05;101768.88;;;22.46;62.93
61026;BME280;46911;32.650;-16.902;2022-08-25T02:57:09;101774.47;;;22.44;63.12
61026;BME280;46911;32.650;-16.902;2022-08-25T02:59:12;101774.47;;;22.44;62.85
61026;BME280;46911;32.650;-16.902;2022-08-25T03:01:17;101767.16;;;22.45;62.69
61026;BME280;46911;32.650;-16.902;2022-08-25T03:03:18;101771.75;;;22.44;62.33
61026;BME280;46911;32.650;-16.902;2022-08-25T03:05:19;101771.94;;;22.43;62.36
61026;BME280;46911;32.650;-16.902;2022-08-25T03:07:19;101768.50;;;22.40;62.67
61026;BME280;46911;32.650;-16.902;2022-08-25T03:09:21;101775.97;;;22.38;62.66
61026;BME280;46911;32.650;-16.902;2022-08-25T03:11:22;101769.81;;;22.36;62.39
61026;BME280;46911;32.650;-16.902;2022-08-25T03:13:24;101769.81;;;22.36;62.47
61026;BME280;46911;32.650;-16.902;2022-08-25T03:15:27;101774.41;;;22.36;62.43
61026;BME280;46911;32.650;-16.902;2022-08-25T03:17:28;101768.25;;;22.34;62.48
61026;BME280;46911;32.650;-16.902;2022-08-25T03:19:28;101773.00;;;22.32;62.72
61026;BME280;46911;32.650;-16.902;2022-08-25T03:21:29;101777.25;;;22.34;62.35
61026;BME280;46911;32.650;-16.902;2022-08-25T03:23:30;101764.84;;;22.32;62.72
61026;BME280;46911;32.650;-16.902;2022-08-25T03:25:31;101771.44;;;22.29;62.68
61026;BME280;46911;32.650;-16.902;2022-08-25T03:27:50;101767.31;;;22.25;62.51
61026;BME280;46911;32.650;-16.902;2022-08-25T03:29:51;101767.50;;;22.23;62.74
61026;BME280;46911;32.650;-16.902;2022-08-25T03:31:52;101762.50;;;22.19;62.61
61026;BME280;46911;32.650;-16.902;2022-08-25T03:33:54;101767.38;;;22.15;62.87
61026;BME280;46911;32.650;-16.902;2022-08-25T03:35:55;101772.81;;;22.15;62.67
61026;BME280;46911;32.650;-16.902;2022-08-25T03:37:58;101763.97;;;22.13;62.66
61026;BME280;46911;32.650;-16.902;2022-08-25T03:39:59;101757.22;;;22.17;62.90
61026;BME280;46911;32.650;-16.902;2022-08-25T03:42:01;101761.81;;;22.17;63.03
61026;BME280;46911;32.650;-16.902;2022-08-25T03:44:02;101764.66;;;22.15;62.90
61026;BME280;46911;32.650;-16.902;2022-08-25T03:46:07;101762.09;;;22.14;62.59
61026;BME280;46911;32.650;-16.902;2022-08-25T03:48:08;101758.47;;;22.05;62.79
61026;BME280;46911;32.650;-16.902;2022-08-25T03:50:11;101751.78;;;21.99;62.91
61026;BME280;46911;32.650;-16.902;2022-08-25T03:52:15;101749.53;;;21.95;63.26
61026;BME280;46911;32.650;-16.902;2022-08-25T03:54:21;101751.84;;;21.89;63.08
61026;BME280;46911;32.650;-16.902;2022-08-25T03:56:22;101756.72;;;21.86;63.30
61026;BME280;46911;32.650;-16.902;2022-08-25T03:58:22;101747.91;;;21.84;63.07
61026;BME280;46911;32.650;-16.902;2022-08-25T04:00:23;101757.91;;;21.83;63.09
61026;BME280;46911;32.650;-16.902;2022-08-25T04:02:26;101744.78;;;21.79;63.38
61026;BME280;46911;32.650;-16.902;2022-08-25T04:04:27;101739.50;;;21.77;63.42
61026;BME280;46911;32.650;-16.902;2022-08-25T04:06:28;101741.09;;;21.70;63.59
61026;BME280;46911;32.650;-16.902;2022-08-25T04:08:31;101742.59;;;21.64;63.63
61026;BME280;46911;32.650;-16.902;2022-08-25T04:10:32;101737.78;;;21.58;64.06
61026;BME280;46911;32.650;-16.902;2022-08-25T04:12:33;101742.66;;;21.54;63.71
61026;BME280;46911;32.650;-16.902;2022-08-25T04:14:34;101740.34;;;21.50;64.15
61026;BME280;46911;32.650;-16.902;2022-08-25T04:16:39;101737.94;;;21.47;64.23
61026;BME280;46911;32.650;-16.902;2022-08-25T04:18:40;101736.38;;;21.44;64.26
61026;BME280;46911;32.650;-16.902;2022-08-25T04:20:41;101736.69;;;21.41;64.13
61026;BME280;46911;32.650;-16.902;2022-08-25T04:22:42;101742.44;;;21.38;64.61
61026;BME280;46911;32.650;-16.902;2022-08-25T04:24:45;101745.25;;;21.36;64.72
61026;BME280;46911;32.650;-16.902;2022-08-25T04:26:47;101747.28;;;21.34;64.34
61026;BME280;46911;32.650;-16.902;2022-08-25T04:28:50;101747.44;;;21.33;64.60
61026;BME280;46911;32.650;-16.902;2022-08-25T04:30:52;101744.88;;;21.31;64.81
61026;BME280;46911;32.650;-16.902;2022-08-25T04:32:58;101752.00;;;21.32;64.56
61026;BME280;46911;32.650;-16.902;2022-08-25T04:34:58;101753.72;;;21.33;64.85
61026;BME280;46911;32.650;-16.902;2022-08-25T04:37:02;101744.72;;;21.33;64.76
61026;BME280;46911;32.650;-16.902;2022-08-25T04:39:03;101746.41;;;21.34;64.62
61026;BME280;46911;32.650;-16.902;2022-08-25T04:41:04;101739.31;;;21.33;64.76
61026;BME280;46911;32.650;-16.902;2022-08-25T04:43:08;101741.72;;;21.36;64.83
61026;BME280;46911;32.650;-16.902;2022-08-25T04:45:08;101743.69;;;21.34;64.72
61026;BME280;46911;32.650;-16.902;2022-08-25T04:47:09;101744.72;;;21.33;64.65
61026;BME280;46911;32.650;-16.902;2022-08-25T04:49:10;101737.75;;;21.30;64.95
61026;BME280;46911;32.650;-16.902;2022-08-25T04:51:14;101737.34;;;21.25;65.03
61026;BME280;46911;32.650;-16.902;2022-08-25T04:53:15;101743.19;;;21.20;65.09
61026;BME280;46911;32.650;-16.902;2022-08-25T04:55:16;101736.25;;;21.18;65.05
61026;BME280;46911;32.650;-16.902;2022-08-25T04:57:19;101743.66;;;21.16;65.12
61026;BME280;46911;32.650;-16.902;2022-08-25T04:59:20;101745.66;;;21.14;65.28
61026;BME280;46911;32.650;-16.902;2022-08-25T05:01:22;101747.09;;;21.08;65.35
61026;BME280;46911;32.650;-16.902;2022-08-25T05:03:23;101747.25;;;21.06;65.44
61026;BME280;46911;32.650;-16.902;2022-08-25T05:05:24;101747.00;;;21.00;65.45
61026;BME280;46911;32.650;-16.902;2022-08-25T05:07:25;101746.44;;;20.96;65.67
61026;BME280;46911;32.650;-16.902;2022-08-25T05:09:26;101743.59;;;20.88;65.84
61026;BME280;46911;32.650;-16.902;2022-08-25T05:11:29;101745.19;;;20.81;66.37
61026;BME280;46911;32.650;-16.902;2022-08-25T05:13:30;101747.50;;;20.76;66.52
61026;BME280;46911;32.650;-16.902;2022-08-25T05:15:34;101749.78;;;20.70;66.91
61026;BME280;46911;32.650;-16.902;2022-08-25T05:17:52;101746.31;;;20.68;66.79
61026;BME280;46911;32.650;-16.902;2022-08-25T05:19:55;101744.06;;;20.64;67.05
61026;BME280;46911;32.650;-16.902;2022-08-25T05:21:59;101744.06;;;20.64;67.10
61026;BME280;46911;32.650;-16.902;2022-08-25T05:24:00;101747.50;;;20.66;66.65
61026;BME280;46911;32.650;-16.902;2022-08-25T05:26:03;101747.75;;;20.63;67.00
61026;BME280;46911;32.650;-16.902;2022-08-25T05:28:07;101746.19;;;20.60;66.85
61026;BME280;46911;32.650;-16.902;2022-08-25T05:30:11;101743.06;;;20.55;67.19
61026;BME280;46911;32.650;-16.902;2022-08-25T05:32:14;101745.38;;;20.50;66.94
61026;BME280;46911;32.650;-16.902;2022-08-25T05:34:14;101744.06;;;20.44;67.25
61026;BME280;46911;32.650;-16.902;2022-08-25T05:36:19;101746.25;;;20.40;67.47
61026;BME280;46911;32.650;-16.902;2022-08-25T05:38:20;101750.09;;;20.38;67.16
61026;BME280;46911;32.650;-16.902;2022-08-25T05:40:21;101749.50;;;20.34;67.09
61026;BME280;46911;32.650;-16.902;2022-08-25T05:42:24;101753.34;;;20.32;67.22
61026;BME280;46911;32.650;-16.902;2022-08-25T05:44:28;101758.78;;;20.32;67.22
61026;BME280;46911;32.650;-16.902;2022-08-25T05:46:29;101757.50;;;20.26;67.25
61026;BME280;46911;32.650;-16.902;2022-08-25T05:48:29;101755.09;;;20.23;67.26
61026;BME280;46911;32.650;-16.902;2022-08-25T05:50:30;101752.78;;;20.18;67.06
61026;BME280;46911;32.650;-16.902;2022-08-25T05:52:31;101756.06;;;20.22;67.03
61026;BME280;46911;32.650;-16.902;2022-08-25T05:54:32;101758.06;;;20.20;67.14
61026;BME280;46911;32.650;-16.902;2022-08-25T05:56:33;101756.63;;;20.16;67.27
61026;BME280;46911;32.650;-16.902;2022-08-25T05:58:36;101753.34;;;20.12;67.36
61026;BME280;46911;32.650;-16.902;2022-08-25T06:00:37;101753.22;;;20.14;67.15
61026;BME280;46911;32.650;-16.902;2022-08-25T06:02:38;101759.78;;;20.11;66.82
61026;BME280;46911;32.650;-16.902;2022-08-25T06:04:46;101760.19;;;20.06;66.91
61026;BME280;46911;32.650;-16.902;2022-08-25T06:06:48;101756.34;;;19.99;67.36
61026;BME280;46911;32.650;-16.902;2022-08-25T06:08:52;101750.34;;;19.96;67.13
61026;BME280;46911;32.650;-16.902;2022-08-25T06:10:55;101758.03;;;19.90;67.50
61026;BME280;46911;32.650;-16.902;2022-08-25T06:12:58;101763.75;;;19.87;67.55
61026;BME280;46911;32.650;-16.902;2022-08-25T06:14:59;101748.63;;;19.85;67.64
61026;BME280;46911;32.650;-16.902;2022-08-25T06:17:00;101757.88;;;19.82;67.58
61026;BME280;46911;32.650;-16.902;2022-08-25T06:19:05;101761.44;;;19.83;67.56
61026;BME280;46911;32.650;-16.902;2022-08-25T06:21:07;101757.16;;;19.80;67.64
61026;BME280;46911;32.650;-16.902;2022-08-25T06:23:08;101761.97;;;19.77;67.87
61026;BME280;46911;32.650;-16.902;2022-08-25T06:25:09;101765.81;;;19.74;67.90
61026;BME280;46911;32.650;-16.902;2022-08-25T06:27:10;101768.38;;;19.76;67.88
61026;BME280;46911;32.650;-16.902;2022-08-25T06:29:13;101768.53;;;19.74;67.78
61026;BME280;46911;32.650;-16.902;2022-08-25T06:31:18;101774.09;;;19.72;67.97
61026;BME280;46911;32.650;-16.902;2022-08-25T06:33:21;101769.66;;;19.71;67.90
61026;BME280;46911;32.650;-16.902;2022-08-25T06:35:21;101763.50;;;19.69;67.59
61026;BME280;46911;32.650;-16.902;2022-08-25T06:37:22;101767.25;;;19.68;67.70
61026;BME280;46911;32.650;-16.902;2022-08-25T06:39:23;101766.50;;;19.66;67.99
61026;BME280;46911;32.650;-16.902;2022-08-25T06:41:23;101772.06;;;19.65;68.11
61026;BME280;46911;32.650;-16.902;2022-08-25T06:43:24;101765.66;;;19.66;67.89
61026;BME280;46911;32.650;-16.902;2022-08-25T06:45:27;101766.34;;;19.68;67.72
61026;BME280;46911;32.650;-16.902;2022-08-25T06:47:28;101769.50;;;19.73;67.55
61026;BME280;46911;32.650;-16.902;2022-08-25T06:49:29;101767.69;;;19.73;67.67
61026;BME280;46911;32.650;-16.902;2022-08-25T06:51:29;101770.25;;;19.75;67.76
61026;BME280;46911;32.650;-16.902;2022-08-25T06:53:30;101776.34;;;19.77;67.71
61026;BME280;46911;32.650;-16.902;2022-08-25T06:55:31;101784.34;;;19.79;67.39
61026;BME280;46911;32.650;-16.902;2022-08-25T06:57:36;101774.13;;;19.82;67.47
61026;BME280;46911;32.650;-16.902;2022-08-25T06:59:39;101776.53;;;19.85;67.36
61026;BME280;46911;32.650;-16.902;2022-08-25T07:01:39;101785.25;;;19.89;67.59
61026;BME280;46911;32.650;-16.902;2022-08-25T07:03:41;101782.56;;;19.89;67.59
61026;BME280;46911;32.650;-16.902;2022-08-25T07:05:49;101781.84;;;19.97;67.36
61026;BME280;46911;32.650;-16.902;2022-08-25T07:07:49;101787.13;;;19.98;67.49
61026;BME280;46911;32.650;-16.902;2022-08-25T07:09:53;101800.53;;;20.00;67.38
61026;BME280;46911;32.650;-16.902;2022-08-25T07:11:54;101793.38;;;19.99;67.07
61026;BME280;46911;32.650;-16.902;2022-08-25T07:13:55;101790.41;;;20.02;66.99
61026;BME280;46911;32.650;-16.902;2022-08-25T07:15:58;101786.44;;;20.06;66.77
61026;BME280;46911;32.650;-16.902;2022-08-25T07:17:59;101784.16;;;20.11;66.96
61026;BME280;46911;32.650;-16.902;2022-08-25T07:19:59;101784.03;;;20.13;66.85
61026;BME280;46911;32.650;-16.902;2022-08-25T07:22:00;101785.72;;;20.14;66.59
61026;BME280;46911;32.650;-16.902;2022-08-25T07:24:03;101792.44;;;20.19;66.66
61026;BME280;46911;32.650;-16.902;2022-08-25T07:26:12;101791.28;;;20.22;66.66
61026;BME280;46911;32.650;-16.902;2022-08-25T07:28:16;101793.16;;;20.31;66.05
61026;BME280;46911;32.650;-16.902;2022-08-25T07:30:17;101798.28;;;20.34;66.25
61026;BME280;46911;32.650;-16.902;2022-08-25T07:32:19;101795.84;;;20.41;66.21
61026;BME280;46911;32.650;-16.902;2022-08-25T07:34:20;101797.88;;;20.49;65.76
61026;BME280;46911;32.650;-16.902;2022-08-25T07:36:39;101799.97;;;20.55;65.52
61026;BME280;46911;32.650;-16.902;2022-08-25T07:38:40;101810.09;;;20.63;65.39
61026;BME280;46911;32.650;-16.902;2022-08-25T07:40:46;101804.00;;;20.70;65.24
61026;BME280;46911;32.650;-16.902;2022-08-25T07:42:54;101811.44;;;20.78;65.18
61026;BME280;46911;32.650;-16.902;2022-08-25T07:44:57;101809.13;;;20.83;64.73
61026;BME280;46911;32.650;-16.902;2022-08-25T07:46:58;101820.25;;;20.90;64.58
61026;BME280;46911;32.650;-16.902;2022-08-25T07:48:59;101797.84;;;20.88;64.58
61026;BME280;46911;32.650;-16.902;2022-08-25T07:51:05;101822.78;;;21.01;64.53
61026;BME280;46911;32.650;-16.902;2022-08-25T07:53:14;101821.34;;;21.07;64.22
61026;BME280;46911;32.650;-16.902;2022-08-25T07:55:16;101828.06;;;21.13;64.24
61026;BME280;46911;32.650;-16.902;2022-08-25T07:57:16;101817.63;;;21.18;64.04
61026;BME280;46911;32.650;-16.902;2022-08-25T07:59:17;101828.03;;;21.22;63.92
61026;BME280;46911;32.650;-16.902;2022-08-25T08:01:20;101824.75;;;21.29;64.00
61026;BME280;46911;32.650;-16.902;2022-08-25T08:03:21;101821.41;;;21.35;63.69
61026;BME280;46911;32.650;-16.902;2022-08-25T08:05:22;101819.13;;;21.40;63.83
61026;BME280;46911;32.650;-16.902;2022-08-25T08:07:25;101823.97;;;21.46;63.32
61026;BME280;46911;32.650;-16.902;2022-08-25T08:09:26;101829.66;;;21.53;63.55
61026;BME280;46911;32.650;-16.902;2022-08-25T08:11:31;101820.91;;;21.59;63.41
61026;BME280;46911;32.650;-16.902;2022-08-25T08:13:37;101829.03;;;21.69;63.38
61026;BME280;46911;32.650;-16.902;2022-08-25T08:15:43;101821.97;;;21.76;63.17
61026;BME280;46911;32.650;-16.902;2022-08-25T08:17:46;101827.66;;;21.83;63.12
61026;BME280;46911;32.650;-16.902;2022-08-25T08:19:47;101822.31;;;21.91;62.80
61026;BME280;46911;32.650;-16.902;2022-08-25T08:21:47;101826.16;;;21.98;62.57
61026;BME280;46911;32.650;-16.902;2022-08-25T08:23:50;101824.38;;;22.07;62.70
61026;BME280;46911;32.650;-16.902;2022-08-25T08:25:51;101820.88;;;22.15;62.35
61026;BME280;46911;32.650;-16.902;2022-08-25T08:27:52;101822.84;;;22.22;62.26
61026;BME280;46911;32.650;-16.902;2022-08-25T08:29:55;101822.75;;;22.32;61.89
61026;BME280;46911;32.650;-16.902;2022-08-25T08:31:56;101819.16;;;22.42;61.81
61026;BME280;46911;32.650;-16.902;2022-08-25T08:33:57;101816.34;;;22.51;61.52
61026;BME280;46911;32.650;-16.902;2022-08-25T08:36:01;101821.00;;;22.59;61.54
61026;BME280;46911;32.650;-16.902;2022-08-25T08:38:04;101828.38;;;22.67;61.96
61026;BME280;46911;32.650;-16.902;2022-08-25T08:40:05;101825.03;;;22.73;62.37
61026;BME280;46911;32.650;-16.902;2022-08-25T08:46:20;101831.31;;;22.73;62.94
61026;BME280;46911;32.650;-16.902;2022-08-25T08:48:34;101839.47;;;22.73;62.74
61026;BME280;46911;32.650;-16.902;2022-08-25T08:50:57;101841.59;;;22.80;62.60
61026;BME280;46911;32.650;-16.902;2022-08-25T08:53:13;101844.97;;;22.82;62.62
61026;BME280;46911;32.650;-16.902;2022-08-25T08:57:36;101845.44;;;23.13;62.03
61026;BME280;46911;32.650;-16.902;2022-08-25T08:59:48;101846.38;;;23.30;61.71
61026;BME280;46911;32.650;-16.902;2022-08-25T09:01:51;101845.75;;;23.71;61.36
61026;BME280;46911;32.650;-16.902;2022-08-25T09:04:07;101842.03;;;24.31;60.13
61026;BME280;46911;32.650;-16.902;2022-08-25T09:06:12;101843.28;;;24.62;58.85
61026;BME280;46911;32.650;-16.902;2022-08-25T09:08:17;101838.88;;;24.85;58.31
61026;BME280;46911;32.650;-16.902;2022-08-25T09:10:17;101848.41;;;25.70;55.77
61026;BME280;46911;32.650;-16.902;2022-08-25T09:16:54;101847.53;;;26.41;53.08
61026;BME280;46911;32.650;-16.902;2022-08-25T09:21:18;101845.38;;;26.98;50.90
61026;BME280;46911;32.650;-16.902;2022-08-25T09:27:54;101849.31;;;26.57;52.08
61026;BME280;46911;32.650;-16.902;2022-08-25T09:30:12;101843.28;;;26.38;51.93
61026;BME280;46911;32.650;-16.902;2022-08-25T09:32:11;101850.75;;;26.91;51.76
61026;BME280;46911;32.650;-16.902;2022-08-25T09:34:20;101850.56;;;27.61;49.71
61026;BME280;46911;32.650;-16.902;2022-08-25T09:36:21;101846.59;;;27.48;49.26
61026;BME280;46911;32.650;-16.902;2022-08-25T09:38:25;101853.53;;;28.11;47.85
61026;BME280;46911;32.650;-16.902;2022-08-25T09:40:30;101856.41;;;28.02;48.30
61026;BME280;46911;32.650;-16.902;2022-08-25T09:42:48;101850.72;;;28.84;46.53
61026;BME280;46911;32.650;-16.902;2022-08-25T09:44:50;101861.28;;;27.92;47.99
61026;BME280;46911;32.650;-16.902;2022-08-25T09:48:55;101861.06;;;27.42;48.81
61026;BME280;46911;32.650;-16.902;2022-08-25T09:51:00;101867.34;;;27.13;50.18
61026;BME280;46911;32.650;-16.902;2022-08-25T09:53:12;101863.81;;;27.04;50.74
61026;BME280;46911;32.650;-16.902;2022-08-25T09:57:27;101866.25;;;27.67;48.52
61026;BME280;46911;32.650;-16.902;2022-08-25T09:59:29;101878.06;;;27.37;49.64
61026;BME280;46911;32.650;-16.902;2022-08-25T10:01:33;101880.97;;;27.96;48.15
61026;BME280;46911;32.650;-16.902;2022-08-25T10:08:03;101884.56;;;27.96;48.06
61026;BME280;46911;32.650;-16.902;2022-08-25T10:10:17;101881.47;;;28.58;46.47
61026;BME280;46911;32.650;-16.902;2022-08-25T10:12:40;101890.94;;;28.55;46.71
61026;BME280;46911;32.650;-16.902;2022-08-25T10:14:41;101896.16;;;28.86;45.71
61026;BME280;46911;32.650;-16.902;2022-08-25T10:16:45;101901.31;;;28.75;46.17
61026;BME280;46911;32.650;-16.902;2022-08-25T10:23:12;101898.06;;;28.28;47.25
61026;BME280;46911;32.650;-16.902;2022-08-25T10:32:17;101895.53;;;29.41;45.22
61026;BME280;46911;32.650;-16.902;2022-08-25T10:34:24;101903.88;;;29.04;46.07
61026;BME280;46911;32.650;-16.902;2022-08-25T10:42:47;101902.91;;;28.11;48.08
61026;BME280;46911;32.650;-16.902;2022-08-25T10:47:27;101901.78;;;28.42;47.64
61026;BME280;46911;32.650;-16.902;2022-08-25T10:49:44;101893.09;;;29.60;44.80
61026;BME280;46911;32.650;-16.902;2022-08-25T10:56:08;101892.28;;;30.69;42.62
61026;BME280;46911;32.650;-16.902;2022-08-25T10:58:18;101892.03;;;30.51;42.59
61026;BME280;46911;32.650;-16.902;2022-08-25T11:00:23;101894.22;;;29.65;44.16
61026;BME280;46911;32.650;-16.902;2022-08-25T11:06:49;101893.63;;;29.77;44.22
61026;BME280;46911;32.650;-16.902;2022-08-25T11:08:56;101891.19;;;29.03;46.20
61026;BME280;46911;32.650;-16.902;2022-08-25T11:11:15;101894.25;;;28.87;46.76
61026;BME280;46911;32.650;-16.902;2022-08-25T11:13:25;101887.88;;;29.71;44.80
61026;BME280;46911;32.650;-16.902;2022-08-25T11:15:37;101893.38;;;30.07;44.53
61026;BME280;46911;32.650;-16.902;2022-08-25T11:19:52;101900.03;;;30.39;43.38
61026;BME280;46911;32.650;-16.902;2022-08-25T11:24:07;101894.59;;;29.97;45.19
61026;BME280;46911;32.650;-16.902;2022-08-25T11:26:14;101894.41;;;31.14;42.35
61026;BME280;46911;32.650;-16.902;2022-08-25T11:30:20;101901.38;;;30.90;42.64
61026;BME280;46911;32.650;-16.902;2022-08-25T11:32:23;101898.09;;;30.39;43.74
61026;BME280;46911;32.650;-16.902;2022-08-25T11:34:34;101897.81;;;31.23;42.53
61026;BME280;46911;32.650;-16.902;2022-08-25T11:36:36;101904.78;;;30.72;43.51